Impacts TAF Board
For situational awareness. Not to be used for flight planning purposes.
IDs:

KJCT - Junction/Kimble Cnty, TX, US

Issued at 2118 UTC 21 May 2022
Updated at 2250 UTC 21 May 2022
Potential Impact None Slight Moderate High
Time2243Z 21/23Z 22/00Z 22/01Z 22/02Z 22/03Z 22/04Z 22/05Z 22/06Z 22/07Z 22/08Z 22/09Z 22/10Z 22/11Z>>
Type OBS PRVL PRVL PRVL PRVL PRVL PRVL PRVL PRVL PRVL PRVL PRVL PRVL PRVL
VIS 10 >6 >6 >6 >6 >6 >6 >6 >6 >6 >6 >6 >6 >6
CIG -- 90 100 100 100 100 100 100 100 40 40 40 40 40
Cover CLR BKN BKN BKN BKN BKN BKN BKN BKN OVC OVC OVC OVC OVC
FltCat VFR VFR VFR VFR VFR VFR VFR VFR VFR VFR VFR VFR VFR VFR
WX VCTS VCTS -- -- -- -- -- -- -- -- -- -- -- --
WDir 90 10 50 50 50 50 50 50 50 60 60 60 60 60
WSpd 15 10 15 15 15 15 15 15 15 10 10 10 10 10
WGst -- 18 28 28 28 28 28 28 28 20 20 20 20 20
WSHgt -- -- -- -- -- -- -- -- -- -- -- -- -- --
WSDir -- -- -- -- -- -- -- -- -- -- -- -- -- --
WSSpd -- -- -- -- -- -- -- -- -- -- -- -- -- --
Raw TAF
KJCT 212118Z 2121/2218 01010KT 5SM -TSRA BKN090CB
  FM212300 01010G18KT P6SM VCTS BKN090CB
  FM220000 05015G28KT P6SM SCT060 BKN100
  FM220700 06010G20KT P6SM SCT025 OVC040
  FM221300 05010KT P6SM SCT015 OVC025


Raw METAR
KJCT 212243Z AUTO 09015KT 10SM VCTS CLR 25/20 A2991 RMK AO2 PK WND 08028/2158 LTG DSNT SE-W RAE23 TSB2155E20 P0010 T02500200 $
KJCT 212226Z AUTO 08016G22KT 10SM FEW033 FEW042 SCT095 25/21 A2989 RMK AO2 PK WND 08028/2158 LTG DSNT E-S RAE23 TSB2155E20 P0010 T02500211 $
KJCT 212201Z AUTO 07016G28KT 10SM +TSRA FEW050 BKN090 OVC110 26/21 A2988 RMK AO2 PK WND 08028/2158 LTG DSNT ALQDS TSB2155 P0006 T02560211 $
KJCT 212151Z AUTO 05017G31KT 10SM -RA FEW055 FEW070 BKN110 27/20 A2987 RMK AO2 PK WND 05035/2126 LTG DSNT ALQDS RAB38 PRESRR SLP079 P0001 T02720200 $
KJCT 212051Z AUTO VRB05KT 10SM FEW090 38/14 A2983 RMK AO2 LTG DSNT NE-SE SLP059 T03780144 56010 $
KJCT 211951Z AUTO VRB06KT 10SM FEW100 37/16 A2984 RMK AO2 LTG DSNT NE SLP061 T03670156 $

METAR Board
Radar Display
Forecast Discussion
For situational awareness. Not to be used for flight planning purposes.